createdAt,value
2024-01-24T00:02:50.524Z,90.55
2024-01-24T00:07:51.853Z,90.21
2024-01-24T00:12:53.129Z,89.58
2024-01-24T00:17:54.510Z,89.47
2024-01-24T00:22:55.751Z,88.95
2024-01-24T00:27:56.975Z,89.12
2024-01-24T00:32:58.250Z,88.72
2024-01-24T00:37:59.520Z,88.46
2024-01-24T00:43:01.366Z,88.55
2024-01-24T00:48:02.796Z,88.17
2024-01-24T00:53:04.142Z,88.21
2024-01-24T00:58:05.412Z,87.71
2024-01-24T01:03:06.733Z,87.40
2024-01-24T01:08:08.043Z,87.13
2024-01-24T01:13:09.251Z,86.63
2024-01-24T01:18:10.568Z,86.04
2024-01-24T01:23:11.848Z,86.41
2024-01-24T01:28:13.076Z,86.32
2024-01-24T01:33:14.388Z,86.46
2024-01-24T01:38:15.892Z,86.25
2024-01-24T01:43:17.390Z,85.95
2024-01-24T01:48:18.740Z,86.10
2024-01-24T01:53:20.067Z,85.84
2024-01-24T01:58:21.295Z,85.13
2024-01-24T02:03:22.641Z,85.20
2024-01-24T02:08:23.977Z,84.66
2024-01-24T02:13:25.403Z,84.19
2024-01-24T02:18:26.638Z,84.10
2024-01-24T02:23:27.969Z,84.35
2024-01-24T02:28:29.483Z,84.20
2024-01-24T02:33:30.748Z,84.18
2024-01-24T02:38:32.003Z,83.90
2024-01-24T02:43:33.214Z,83.50
2024-01-24T02:48:34.607Z,83.45
2024-01-24T02:53:35.898Z,83.36
2024-01-24T02:58:37.110Z,83.28
2024-01-24T03:03:38.471Z,82.95
2024-01-24T03:08:39.751Z,82.73
2024-01-24T03:13:41.004Z,82.78
2024-01-24T03:18:42.349Z,82.37
2024-01-24T03:23:43.652Z,82.84
2024-01-24T03:28:45.031Z,82.66
2024-01-24T03:33:46.362Z,82.56
2024-01-24T03:38:47.617Z,82.58
2024-01-24T03:43:49.312Z,82.32
2024-01-24T03:48:51.734Z,82.65
2024-01-24T03:53:53.083Z,82.85
2024-01-24T03:58:54.304Z,82.98
2024-01-24T04:03:55.923Z,83.12
2024-01-24T04:08:57.283Z,82.86
2024-01-24T04:13:59.632Z,82.63
2024-01-24T04:19:00.975Z,83.08
2024-01-24T04:24:02.223Z,83.23
2024-01-24T04:29:03.485Z,83.16
2024-01-24T04:34:04.856Z,83.35
2024-01-24T04:39:06.628Z,83.57
2024-01-24T04:44:07.883Z,83.00
2024-01-24T04:49:16.091Z,83.16
2024-01-24T04:54:23.941Z,82.63
2024-01-24T04:59:25.201Z,81.86
2024-01-24T05:04:26.426Z,82.89
2024-01-24T05:09:27.664Z,84.51
2024-01-24T05:14:29.358Z,85.00
2024-01-24T05:19:30.682Z,85.13
2024-01-24T05:24:32.104Z,85.21
2024-01-24T05:29:33.334Z,81.54
2024-01-24T05:34:34.671Z,80.99
2024-01-24T05:39:36.169Z,81.19
2024-01-24T05:44:37.401Z,81.95
2024-01-24T05:49:38.758Z,82.78
2024-01-24T05:54:39.994Z,82.95
2024-01-24T05:59:41.280Z,79.90
2024-01-24T06:04:42.690Z,76.11
2024-01-24T06:09:44.033Z,74.70
2024-01-24T06:14:45.416Z,73.10
2024-01-24T06:19:46.770Z,70.95
2024-01-24T06:24:48.299Z,71.88
2024-01-24T06:30:17.227Z,72.76
2024-01-24T06:35:11.901Z,72.81
2024-01-24T06:40:13.201Z,72.22
2024-01-24T06:45:14.517Z,72.33
2024-01-24T06:50:17.664Z,72.41
2024-01-24T06:55:19.029Z,72.16
2024-01-24T07:00:20.420Z,71.84
2024-01-24T07:05:21.668Z,71.55
2024-01-24T07:10:23.160Z,72.46
2024-01-24T07:15:24.403Z,72.74
2024-01-24T07:20:25.662Z,72.82
2024-01-24T07:25:26.987Z,73.19
2024-01-24T07:30:29.027Z,73.60
2024-01-24T07:35:30.265Z,72.99
2024-01-24T07:40:31.473Z,73.69
2024-01-24T07:45:32.772Z,73.91
2024-01-24T07:50:34.090Z,74.55
2024-01-24T07:55:41.708Z,74.23
2024-01-24T08:00:55.743Z,74.53
2024-01-24T08:05:57.500Z,75.42
2024-01-24T08:10:58.939Z,75.68
2024-01-24T08:16:00.293Z,75.97
2024-01-24T08:21:01.583Z,77.83
2024-01-24T08:26:02.826Z,79.16
2024-01-24T08:31:04.523Z,78.35
2024-01-24T08:36:05.841Z,78.09
2024-01-24T08:41:08.345Z,78.03
2024-01-24T08:46:09.700Z,76.09
2024-01-24T08:51:11.123Z,75.51
2024-01-24T08:56:12.411Z,73.96
2024-01-24T09:01:13.816Z,74.24
2024-01-24T09:06:16.379Z,73.93
2024-01-24T09:11:17.651Z,75.30
2024-01-24T09:16:18.969Z,79.56
2024-01-24T09:21:20.472Z,78.46
2024-01-24T09:26:21.879Z,78.10
2024-01-24T09:31:23.181Z,75.79
2024-01-24T09:36:24.519Z,75.53
2024-01-24T09:41:26.050Z,75.33
2024-01-24T09:46:27.288Z,74.31
2024-01-24T09:51:30.023Z,74.76
2024-01-24T09:56:31.382Z,75.55
2024-01-24T10:01:32.717Z,73.95
2024-01-24T10:06:34.369Z,75.14
2024-01-24T10:11:35.862Z,73.69
2024-01-24T10:16:37.196Z,73.50
2024-01-24T10:21:38.633Z,71.67
2024-01-24T10:26:39.905Z,70.56
2024-01-24T10:31:41.227Z,70.86
2024-01-24T10:36:44.013Z,70.22
2024-01-24T10:41:45.786Z,69.90
2024-01-24T10:46:47.044Z,70.22
2024-01-24T10:51:48.338Z,70.46
2024-01-24T10:56:51.441Z,69.36
2024-01-24T11:01:52.884Z,69.36
2024-01-24T11:06:54.141Z,69.46
2024-01-24T11:11:55.491Z,68.83
2024-01-24T11:16:56.711Z,69.12
2024-01-24T11:21:57.996Z,69.73
2024-01-24T11:26:59.344Z,69.12
2024-01-24T11:32:01.886Z,68.52
2024-01-24T11:37:03.216Z,67.43
2024-01-24T11:42:04.706Z,67.24
2024-01-24T11:47:05.943Z,67.37
2024-01-24T11:52:07.228Z,66.58
2024-01-24T11:57:08.516Z,66.39
2024-01-24T12:02:09.747Z,65.64
2024-01-24T12:07:11.039Z,66.69
2024-01-24T12:12:12.278Z,65.73
2024-01-24T12:17:13.555Z,65.99
2024-01-24T12:22:14.965Z,65.98
2024-01-24T12:27:16.336Z,65.80
2024-01-24T12:32:17.883Z,66.11
2024-01-24T12:37:19.867Z,66.57
2024-01-24T12:42:21.242Z,66.26
2024-01-24T12:47:22.566Z,66.21
2024-01-24T12:52:23.923Z,66.45
2024-01-24T12:57:25.484Z,66.09
2024-01-24T13:02:28.741Z,66.13
2024-01-24T13:07:30.238Z,65.18
2024-01-24T13:12:31.635Z,64.61
2024-01-24T13:17:34.357Z,65.79
2024-01-24T13:22:35.594Z,64.80
2024-01-24T13:27:36.986Z,65.52
2024-01-24T13:32:38.783Z,65.85
2024-01-24T13:37:40.028Z,65.29
2024-01-24T13:42:41.344Z,65.30
2024-01-24T13:47:42.773Z,65.42
2024-01-24T13:52:44.245Z,66.39
2024-01-24T13:57:45.960Z,65.05
2024-01-24T14:02:47.515Z,65.38
2024-01-24T14:07:48.814Z,65.11
2024-01-24T14:12:50.215Z,64.89
2024-01-24T14:17:51.518Z,64.15
2024-01-24T14:22:52.767Z,64.50
2024-01-24T14:27:53.977Z,66.07
2024-01-24T14:32:55.254Z,65.03
2024-01-24T14:37:56.556Z,65.22
2024-01-24T14:42:57.809Z,65.34
2024-01-24T14:47:59.605Z,65.50
2024-01-24T14:53:00.873Z,65.58
2024-01-24T14:58:02.163Z,66.20
2024-01-24T15:03:04.871Z,66.43
2024-01-24T15:08:06.987Z,66.63
2024-01-24T15:13:08.247Z,66.80
2024-01-24T15:18:10.078Z,66.39
2024-01-24T15:23:11.329Z,66.71
2024-01-24T15:28:13.082Z,67.32
2024-01-24T15:33:14.437Z,67.45
2024-01-24T15:38:15.723Z,67.31
2024-01-24T15:43:17.855Z,68.55
2024-01-24T15:48:19.258Z,68.57
2024-01-24T15:53:20.564Z,68.84
2024-01-24T15:58:21.939Z,69.76
2024-01-24T16:03:23.693Z,69.52
2024-01-24T16:08:25.114Z,70.24
2024-01-24T16:13:26.382Z,69.43
2024-01-24T16:18:29.838Z,70.40
2024-01-24T16:23:31.093Z,69.97
2024-01-24T16:28:32.331Z,69.96
2024-01-24T16:33:33.841Z,69.61
2024-01-24T16:38:35.202Z,70.07
2024-01-24T16:43:37.234Z,70.15
2024-01-24T16:48:39.377Z,70.39
2024-01-24T16:53:41.368Z,69.63
2024-01-24T16:58:42.769Z,68.94
2024-01-24T17:03:45.687Z,69.90
2024-01-24T17:08:47.207Z,70.21
2024-01-24T17:13:48.428Z,70.92
2024-01-24T17:18:49.723Z,71.25
2024-01-24T17:23:51.877Z,71.56
2024-01-24T17:28:55.204Z,71.35
2024-01-24T17:33:57.999Z,71.81
2024-01-24T17:38:59.437Z,72.18
2024-01-24T17:44:00.712Z,72.14
2024-01-24T17:49:02.346Z,71.98
2024-01-24T17:54:03.969Z,72.29
2024-01-24T17:59:05.315Z,71.94
2024-01-24T18:04:06.960Z,71.70
2024-01-24T18:09:08.417Z,71.98
2024-01-24T18:14:09.660Z,71.79
2024-01-24T18:19:10.983Z,72.37
2024-01-24T18:24:12.304Z,72.52
2024-01-24T18:29:14.901Z,72.80
2024-01-24T18:34:18.621Z,73.04
2024-01-24T18:39:20.054Z,73.74
2024-01-24T18:44:21.426Z,74.25
2024-01-24T18:49:23.069Z,74.95
2024-01-24T18:54:24.599Z,75.45
2024-01-24T18:59:25.878Z,75.81
2024-01-24T19:04:27.349Z,76.51
2024-01-24T19:09:28.794Z,77.24
2024-01-24T19:14:30.287Z,77.58
2024-01-24T19:19:32.062Z,77.86
2024-01-24T19:24:34.725Z,78.03
2024-01-24T19:29:36.972Z,78.36
2024-01-24T19:34:39.729Z,78.61
2024-01-24T19:39:41.631Z,79.06
2024-01-24T19:44:43.882Z,79.08
2024-01-24T19:49:45.238Z,78.82
2024-01-24T19:54:46.624Z,78.90
2024-01-24T19:59:47.862Z,79.20
2024-01-24T20:04:49.160Z,79.41
2024-01-24T20:09:51.454Z,79.80
2024-01-24T20:14:52.724Z,80.09
2024-01-24T20:19:54.458Z,80.29
2024-01-24T20:24:55.788Z,80.54
2024-01-24T20:29:57.112Z,80.54
2024-01-24T20:34:58.513Z,80.71
2024-01-24T20:39:59.979Z,80.59
2024-01-24T20:45:01.261Z,80.81
2024-01-24T20:50:02.683Z,80.57
2024-01-24T20:55:04.076Z,80.95
2024-01-24T21:00:06.859Z,80.82
2024-01-24T21:05:08.316Z,80.71
2024-01-24T21:10:09.987Z,80.83
2024-01-24T21:15:11.335Z,80.87
2024-01-24T21:20:12.610Z,80.95
2024-01-24T21:25:14.052Z,81.17
2024-01-24T21:30:15.381Z,81.62
2024-01-24T21:35:16.635Z,81.40
2024-01-24T21:40:18.000Z,81.58
2024-01-24T21:45:19.337Z,82.13
2024-01-24T21:50:20.591Z,82.35
2024-01-24T21:55:21.832Z,82.74
2024-01-24T22:00:23.067Z,83.34
2024-01-24T22:05:24.363Z,83.64
2024-01-24T22:10:25.842Z,83.72
2024-01-24T22:15:27.204Z,83.92
2024-01-24T22:20:28.577Z,84.21
2024-01-24T22:25:29.951Z,83.84
2024-01-24T22:30:31.357Z,83.80
2024-01-24T22:35:33.080Z,83.68
2024-01-24T22:40:34.456Z,83.94
2024-01-24T22:45:35.785Z,83.82
2024-01-24T22:50:37.154Z,83.86
2024-01-24T22:55:38.489Z,83.81
2024-01-24T23:00:39.855Z,83.76
2024-01-24T23:05:41.380Z,83.67
2024-01-24T23:10:42.646Z,84.07
2024-01-24T23:15:44.017Z,84.10
2024-01-24T23:20:45.295Z,84.19
2024-01-24T23:25:49.879Z,84.28
2024-01-24T23:30:52.735Z,84.39
2024-01-24T23:35:54.097Z,84.44
2024-01-24T23:40:55.384Z,84.77
2024-01-24T23:45:56.706Z,84.91
2024-01-24T23:50:58.138Z,85.06
2024-01-24T23:55:59.542Z,85.27
